createdAt,value
2022-09-12T00:01:36.732Z,17.07
2022-09-12T00:04:05.551Z,17.14
2022-09-12T00:06:37.727Z,17.10
2022-09-12T00:09:09.571Z,16.79
2022-09-12T00:11:39.096Z,16.92
2022-09-12T00:14:09.246Z,17.03
2022-09-12T00:16:40.410Z,16.87
2022-09-12T00:19:09.828Z,16.96
2022-09-12T00:21:40.293Z,16.82
2022-09-12T00:24:09.293Z,16.73
2022-09-12T00:26:37.999Z,16.69
2022-09-12T00:29:06.439Z,16.88
2022-09-12T00:31:35.417Z,16.92
2022-09-12T00:34:05.283Z,16.79
2022-09-12T00:36:33.698Z,16.77
2022-09-12T00:39:02.128Z,16.71
2022-09-12T00:41:33.997Z,16.69
2022-09-12T00:44:05.751Z,16.47
2022-09-12T00:46:42.324Z,16.51
2022-09-12T00:49:19.014Z,16.70
2022-09-12T00:51:54.478Z,16.74
2022-09-12T00:54:29.335Z,16.65
2022-09-12T00:57:02.077Z,16.35
2022-09-12T00:59:36.929Z,16.68
2022-09-12T01:02:05.916Z,16.67
2022-09-12T01:04:41.764Z,16.59
2022-09-12T01:07:10.861Z,16.68
2022-09-12T01:09:41.008Z,16.65
2022-09-12T01:12:10.634Z,16.52
2022-09-12T01:14:40.105Z,16.45
2022-09-12T01:17:08.502Z,16.56
2022-09-12T01:20:10.305Z,16.51
2022-09-12T01:23:17.225Z,16.49
2022-09-12T01:26:04.328Z,16.37
2022-09-12T01:29:00.121Z,16.36
2022-09-12T01:31:38.636Z,16.06
2022-09-12T01:34:20.027Z,16.46
2022-09-12T01:37:01.868Z,16.05
2022-09-12T01:39:39.956Z,16.37
2022-09-12T01:42:19.392Z,16.20
2022-09-12T01:44:56.306Z,16.23
2022-09-12T01:47:35.175Z,16.11
2022-09-12T01:50:08.052Z,16.04
2022-09-12T01:52:46.025Z,16.33
2022-09-12T01:55:20.091Z,16.01
2022-09-12T01:57:55.868Z,16.29
2022-09-12T02:00:24.393Z,16.20
2022-09-12T02:03:03.011Z,15.96
2022-09-12T02:05:35.676Z,16.22
2022-09-12T02:08:09.393Z,16.17
2022-09-12T02:10:46.714Z,16.20
2022-09-12T02:13:19.946Z,16.13
2022-09-12T02:15:53.869Z,16.27
2022-09-12T02:18:27.295Z,16.02
2022-09-12T02:20:57.192Z,16.12
2022-09-12T02:23:30.818Z,16.22
2022-09-12T02:26:05.613Z,16.25
2022-09-12T02:28:39.217Z,16.30
2022-09-12T02:31:20.388Z,15.96
2022-09-12T02:34:00.211Z,16.12
2022-09-12T02:36:40.078Z,15.98
2022-09-12T02:39:08.585Z,15.96
2022-09-12T02:41:37.572Z,15.83
2022-09-12T02:44:06.956Z,16.22
2022-09-12T02:46:40.578Z,16.21
2022-09-12T02:49:11.318Z,15.91
2022-09-12T02:51:40.113Z,16.07
2022-09-12T02:54:09.314Z,16.12
2022-09-12T02:56:41.993Z,16.14
2022-09-12T02:59:13.936Z,15.98
2022-09-12T03:02:00.461Z,16.39
2022-09-12T03:04:48.590Z,16.20
2022-09-12T03:07:32.231Z,16.44
2022-09-12T03:10:10.652Z,16.46
2022-09-12T03:12:52.462Z,16.45
2022-09-12T03:15:34.628Z,16.58
2022-09-12T03:18:21.013Z,16.57
2022-09-12T03:21:00.538Z,16.54
2022-09-12T03:23:35.831Z,16.51
2022-09-12T03:26:10.833Z,16.43
2022-09-12T03:28:42.038Z,16.60
2022-09-12T03:31:15.632Z,16.26
2022-09-12T03:33:44.263Z,16.38
2022-09-12T03:36:20.631Z,16.53
2022-09-12T03:38:48.911Z,16.72
2022-09-12T03:41:17.207Z,16.52
2022-09-12T03:43:46.201Z,16.47
2022-09-12T03:46:15.422Z,16.43
2022-09-12T03:48:44.009Z,16.54
2022-09-12T03:51:12.758Z,16.59
2022-09-12T03:53:42.377Z,16.65
2022-09-12T03:56:14.696Z,16.72
2022-09-12T03:58:43.325Z,16.56
2022-09-12T04:01:13.443Z,16.33
2022-09-12T04:03:42.357Z,16.58
2022-09-12T04:06:13.911Z,16.10
2022-09-12T04:08:45.396Z,16.22
2022-09-12T04:11:15.996Z,16.52
2022-09-12T04:13:46.503Z,16.45
2022-09-12T04:16:17.538Z,16.25
2022-09-12T04:18:47.436Z,16.45
2022-09-12T04:21:18.699Z,16.22
2022-09-12T04:23:48.739Z,16.35
2022-09-12T04:26:18.509Z,16.32
2022-09-12T04:28:48.273Z,16.45
2022-09-12T04:31:20.753Z,16.51
2022-09-12T04:33:49.292Z,16.25
2022-09-12T04:36:19.004Z,16.34
2022-09-12T04:38:49.254Z,16.59
2022-09-12T04:41:20.448Z,16.50
2022-09-12T04:43:53.790Z,16.53
2022-09-12T04:46:22.589Z,16.52
2022-09-12T04:48:56.472Z,16.54
2022-09-12T04:51:28.280Z,16.31
2022-09-12T04:54:00.421Z,16.26
2022-09-12T04:56:30.285Z,16.48
2022-09-12T04:59:00.781Z,16.47
2022-09-12T05:01:30.918Z,16.45
2022-09-12T05:04:00.887Z,16.43
2022-09-12T05:06:31.598Z,16.52
2022-09-12T05:09:02.938Z,16.39
2022-09-12T05:12:00.119Z,16.17
2022-09-12T05:14:22.357Z,16.61
2022-09-12T05:16:50.733Z,16.55
2022-09-12T05:19:19.225Z,16.49
2022-09-12T05:21:47.665Z,16.22
2022-09-12T05:24:17.729Z,16.48
2022-09-12T05:26:46.101Z,16.51
2022-09-12T05:29:14.382Z,16.38
2022-09-12T05:31:43.497Z,16.27
2022-09-12T05:34:12.846Z,16.49
2022-09-12T05:36:41.518Z,16.30
2022-09-12T05:39:09.805Z,16.47
2022-09-12T05:41:39.572Z,16.41
2022-09-12T05:44:12.169Z,16.38
2022-09-12T05:46:42.721Z,16.39
2022-09-12T05:49:13.065Z,16.21
2022-09-12T05:51:44.910Z,16.22
2022-09-12T05:54:18.183Z,16.38
2022-09-12T05:56:49.369Z,16.21
2022-09-12T05:59:21.026Z,16.35
2022-09-12T06:01:49.899Z,16.50
2022-09-12T06:04:18.974Z,16.48
2022-09-12T06:06:48.844Z,16.55
2022-09-12T06:09:18.644Z,16.31
2022-09-12T06:11:48.763Z,16.59
2022-09-12T06:14:19.557Z,16.50
2022-09-12T06:16:48.775Z,16.61
2022-09-12T06:19:19.487Z,16.60
2022-09-12T06:21:48.413Z,16.36
2022-09-12T06:24:17.634Z,16.63
2022-09-12T06:26:48.369Z,16.41
2022-09-12T06:29:18.948Z,16.46
2022-09-12T06:31:47.224Z,16.60
2022-09-12T06:34:17.405Z,16.40
2022-09-12T06:36:47.684Z,16.31
2022-09-12T06:39:18.965Z,16.65
2022-09-12T06:41:50.039Z,16.53
2022-09-12T06:44:21.127Z,16.59
2022-09-12T06:46:49.935Z,16.53
2022-09-12T06:49:18.607Z,16.47
2022-09-12T06:51:46.934Z,16.66
2022-09-12T06:54:16.878Z,16.42
2022-09-12T06:56:48.229Z,16.80
2022-09-12T06:59:16.670Z,16.55
2022-09-12T07:01:45.103Z,16.75
2022-09-12T07:04:13.541Z,17.03
2022-09-12T07:06:44.795Z,16.96
2022-09-12T07:09:16.413Z,17.18
2022-09-12T07:11:45.394Z,17.21
2022-09-12T07:14:16.854Z,16.93
2022-09-12T07:16:45.387Z,17.19
2022-09-12T07:19:13.815Z,17.28
2022-09-12T07:21:42.485Z,17.49
2022-09-12T07:24:11.867Z,17.64
2022-09-12T07:26:42.317Z,17.63
2022-09-12T07:29:36.924Z,17.70
2022-09-12T07:32:06.714Z,17.83
2022-09-12T07:34:36.882Z,17.59
2022-09-12T07:37:05.921Z,18.04
2022-09-12T07:39:34.517Z,18.06
2022-09-12T07:42:02.885Z,18.13
2022-09-12T07:44:32.656Z,18.18
2022-09-12T07:47:01.356Z,18.32
2022-09-12T07:49:30.531Z,18.53
2022-09-12T07:51:58.878Z,18.28
2022-09-12T07:54:27.283Z,18.59
2022-09-12T07:56:55.736Z,18.61
2022-09-12T07:59:48.329Z,18.59
2022-09-12T08:02:17.400Z,18.81
2022-09-12T08:04:47.612Z,18.93
2022-09-12T08:07:16.039Z,19.22
2022-09-12T08:09:45.542Z,19.31
2022-09-12T08:12:13.970Z,19.93
2022-09-12T08:14:42.400Z,20.35
2022-09-12T08:17:10.988Z,21.34
2022-09-12T08:19:40.790Z,21.39
2022-09-12T08:22:09.883Z,21.61
2022-09-12T08:24:39.188Z,22.13
2022-09-12T08:27:07.940Z,22.24
2022-09-12T08:29:36.281Z,22.51
2022-09-12T08:32:05.183Z,22.75
2022-09-12T08:34:33.681Z,22.80
2022-09-12T08:37:04.110Z,23.13
2022-09-12T08:39:33.261Z,23.46
2022-09-12T08:42:04.961Z,23.60
2022-09-12T08:45:02.731Z,23.56
2022-09-12T08:47:35.698Z,23.50
2022-09-12T08:50:15.402Z,24.01
2022-09-12T08:52:58.596Z,24.18
2022-09-12T08:55:34.519Z,23.93
2022-09-12T08:58:13.035Z,23.76
2022-09-12T09:00:52.135Z,23.99
2022-09-12T09:04:20.582Z,24.45
2022-09-12T09:07:18.754Z,24.20
2022-09-12T09:10:07.923Z,24.29
2022-09-12T09:12:47.674Z,24.35
2022-09-12T09:15:35.013Z,24.53
2022-09-12T09:18:07.484Z,24.60
2022-09-12T09:20:44.074Z,24.73
2022-09-12T09:23:17.962Z,24.74
2022-09-12T09:25:59.112Z,24.66
2022-09-12T09:28:35.201Z,24.63
2022-09-12T09:31:03.799Z,24.79
2022-09-12T09:33:36.114Z,24.72
2022-09-12T09:36:19.133Z,24.82
2022-09-12T09:38:52.004Z,24.76
2022-09-12T09:41:46.991Z,25.23
2022-09-12T09:44:15.436Z,24.78
2022-09-12T09:46:43.796Z,25.12
2022-09-12T09:49:15.583Z,24.98
2022-09-12T09:51:44.640Z,25.06
2022-09-12T09:54:22.293Z,25.17
2022-09-12T09:56:52.541Z,25.15
2022-09-12T09:59:28.334Z,25.30
2022-09-12T10:02:02.185Z,25.38
2022-09-12T10:04:35.970Z,25.34
2022-09-12T10:07:07.466Z,25.52
2022-09-12T10:09:37.643Z,25.68
2022-09-12T10:12:28.173Z,25.33
2022-09-12T10:15:00.672Z,25.46
2022-09-12T10:17:34.457Z,25.39
2022-09-12T10:22:51.906Z,25.91
2022-09-12T10:25:21.487Z,25.57
2022-09-12T10:27:58.317Z,26.14
2022-09-12T10:30:28.996Z,26.14
2022-09-12T10:33:10.017Z,25.90
2022-09-12T10:35:50.861Z,26.05
2022-09-12T10:38:25.689Z,26.63
2022-09-12T10:41:01.255Z,26.75
2022-09-12T10:43:36.136Z,26.61
2022-09-12T10:46:30.276Z,27.07
2022-09-12T10:49:21.151Z,27.30
2022-09-12T10:51:50.137Z,27.47
2022-09-12T10:54:22.209Z,27.46
2022-09-12T10:57:34.194Z,27.57
2022-09-12T11:00:16.694Z,27.57
2022-09-12T11:02:54.270Z,27.90
2022-09-12T11:05:45.610Z,27.88
2022-09-12T11:08:34.413Z,27.86
2022-09-12T11:11:11.868Z,27.93
2022-09-12T11:14:03.469Z,27.77
2022-09-12T11:16:44.206Z,28.11
2022-09-12T11:19:40.905Z,28.05
2022-09-12T11:22:26.775Z,28.29
2022-09-12T11:25:15.094Z,28.41
2022-09-12T11:28:00.610Z,28.50
2022-09-12T11:30:40.295Z,28.49
2022-09-12T11:33:30.085Z,29.02
2022-09-12T11:36:02.852Z,29.27
2022-09-12T11:38:53.532Z,29.09
2022-09-12T11:41:29.479Z,29.35
2022-09-12T11:44:05.861Z,29.41
2022-09-12T11:46:38.848Z,29.41
2022-09-12T11:49:24.199Z,29.50
2022-09-12T11:51:57.908Z,29.41
2022-09-12T11:54:34.169Z,29.32
2022-09-12T11:57:17.963Z,29.55
2022-09-12T11:59:53.572Z,29.78
2022-09-12T12:02:28.223Z,30.19
2022-09-12T12:05:23.349Z,29.87
2022-09-12T12:07:55.950Z,29.30
2022-09-12T12:10:34.052Z,29.54
2022-09-12T12:13:06.752Z,29.71
2022-09-12T12:15:39.851Z,29.90
2022-09-12T12:18:18.169Z,29.89
2022-09-12T12:20:48.389Z,29.56
2022-09-12T12:23:30.259Z,29.82
2022-09-12T12:26:01.078Z,29.82
2022-09-12T12:29:01.008Z,29.90
2022-09-12T12:31:29.405Z,29.47
2022-09-12T12:34:28.086Z,29.73
2022-09-12T12:36:59.201Z,30.32
2022-09-12T12:40:05.846Z,29.96
2022-09-12T12:43:31.913Z,29.90
2022-09-12T12:46:13.239Z,29.58
2022-09-12T12:49:18.970Z,29.77
2022-09-12T12:52:03.009Z,29.36
2022-09-12T12:54:58.412Z,29.81
2022-09-12T12:57:41.798Z,29.94
2022-09-12T13:00:32.062Z,30.07
2022-09-12T13:03:08.011Z,30.05
2022-09-12T13:05:43.568Z,30.26
2022-09-12T13:08:31.820Z,30.45
2022-09-12T13:11:04.277Z,30.49
2022-09-12T13:13:39.466Z,30.49
2022-09-12T13:16:10.490Z,30.37
2022-09-12T13:18:46.315Z,30.56
2022-09-12T13:21:17.011Z,30.41
2022-09-12T13:24:02.112Z,30.58
2022-09-12T13:26:34.398Z,30.73
2022-09-12T13:29:15.729Z,30.52
2022-09-12T13:31:47.366Z,30.15
2022-09-12T13:34:20.832Z,30.43
2022-09-12T13:37:11.366Z,30.17
2022-09-12T13:39:49.656Z,30.50
2022-09-12T13:42:40.970Z,30.51
2022-09-12T13:45:18.575Z,30.53
2022-09-12T13:47:49.853Z,30.45
2022-09-12T13:50:23.162Z,30.64
2022-09-12T13:52:57.377Z,30.50
2022-09-12T13:55:32.218Z,30.59
2022-09-12T13:58:04.076Z,30.70
2022-09-12T14:00:35.024Z,30.78
2022-09-12T14:03:43.012Z,30.33
2022-09-12T14:06:12.636Z,30.34
2022-09-12T14:08:43.018Z,30.86
2022-09-12T14:11:18.896Z,30.71
2022-09-12T14:13:48.523Z,31.09
2022-09-12T14:16:17.041Z,31.33
2022-09-12T14:18:48.113Z,31.47
2022-09-12T14:21:34.225Z,31.38
2022-09-12T14:24:05.683Z,31.39
2022-09-12T14:26:40.569Z,31.55
2022-09-12T14:29:10.149Z,31.59
2022-09-12T14:31:40.717Z,31.10
2022-09-12T14:34:15.885Z,31.73
2022-09-12T14:36:48.110Z,31.59
2022-09-12T14:39:26.088Z,31.70
2022-09-12T14:42:05.718Z,31.71
2022-09-12T14:44:36.294Z,31.80
2022-09-12T14:47:16.253Z,31.42
2022-09-12T14:49:44.693Z,31.66
2022-09-12T14:52:32.363Z,31.73
2022-09-12T14:55:03.609Z,31.57
2022-09-12T14:57:38.952Z,31.30
2022-09-12T15:00:24.035Z,31.32
2022-09-12T15:02:54.203Z,31.51
2022-09-12T15:05:28.088Z,31.08
2022-09-12T15:08:00.969Z,31.15
2022-09-12T15:10:33.125Z,31.14
2022-09-12T15:13:20.649Z,31.32
2022-09-12T15:15:52.676Z,30.99
2022-09-12T15:18:22.581Z,31.34
2022-09-12T15:20:55.129Z,31.36
2022-09-12T15:23:34.007Z,31.54
2022-09-12T15:26:02.844Z,31.30
2022-09-12T15:28:33.885Z,31.06
2022-09-12T15:31:13.747Z,30.98
2022-09-12T15:33:42.113Z,30.82
2022-09-12T15:36:17.639Z,30.56
2022-09-12T15:38:47.949Z,30.85
2022-09-12T15:41:19.865Z,31.22
2022-09-12T15:43:50.355Z,30.92
2022-09-12T15:46:20.317Z,30.63
2022-09-12T15:48:48.914Z,30.80
2022-09-12T15:51:20.270Z,30.71
2022-09-12T15:53:50.703Z,30.48
2022-09-12T15:56:21.647Z,30.39
2022-09-12T15:59:00.016Z,30.66
2022-09-12T16:01:29.837Z,30.23
2022-09-12T16:03:58.555Z,30.24
2022-09-12T16:06:27.938Z,30.03
2022-09-12T16:08:56.649Z,30.27
2022-09-12T16:11:27.496Z,30.28
2022-09-12T16:13:58.360Z,30.07
2022-09-12T16:16:26.792Z,29.85
2022-09-12T16:18:55.273Z,29.33
2022-09-12T16:21:24.060Z,29.57
2022-09-12T16:23:52.632Z,29.31
2022-09-12T16:26:21.238Z,28.94
2022-09-12T16:28:55.233Z,29.08
2022-09-12T16:31:26.561Z,28.90
2022-09-12T16:33:55.830Z,29.06
2022-09-12T16:36:24.604Z,28.95
2022-09-12T16:38:54.987Z,28.84
2022-09-12T16:41:28.425Z,28.94
2022-09-12T16:43:57.125Z,28.71
2022-09-12T16:46:29.351Z,28.73
2022-09-12T16:48:59.821Z,28.51
2022-09-12T16:51:33.143Z,28.58
2022-09-12T16:54:01.491Z,28.46
2022-09-12T16:56:29.920Z,28.16
2022-09-12T16:58:58.343Z,28.43
2022-09-12T17:01:28.572Z,28.18
2022-09-12T17:03:59.407Z,28.00
2022-09-12T17:06:28.912Z,27.80
2022-09-12T17:09:02.821Z,27.67
2022-09-12T17:11:34.085Z,27.59
2022-09-12T17:14:05.768Z,27.18
2022-09-12T17:16:38.584Z,27.21
2022-09-12T17:19:08.059Z,27.01
2022-09-12T17:21:36.744Z,27.16
2022-09-12T17:24:05.651Z,27.02
2022-09-12T17:26:34.369Z,26.79
2022-09-12T17:29:03.248Z,26.68
2022-09-12T17:31:32.533Z,26.42
2022-09-12T17:34:03.573Z,26.47
2022-09-12T17:36:34.047Z,26.16
2022-09-12T17:39:04.815Z,26.25
2022-09-12T17:41:34.192Z,26.21
2022-09-12T17:44:04.015Z,26.27
2022-09-12T17:46:35.683Z,26.18
2022-09-12T17:49:08.787Z,26.03
2022-09-12T17:51:37.663Z,25.80
2022-09-12T17:54:08.709Z,25.82
2022-09-12T17:56:39.852Z,25.72
2022-09-12T17:59:11.869Z,25.46
2022-09-12T18:01:57.043Z,25.21
2022-09-12T18:04:27.866Z,25.06
2022-09-12T18:06:57.734Z,25.17
2022-09-12T18:09:26.253Z,25.07
2022-09-12T18:11:55.351Z,24.80
2022-09-12T18:14:24.818Z,24.74
2022-09-12T18:16:53.661Z,24.65
2022-09-12T18:19:23.356Z,24.39
2022-09-12T18:21:53.508Z,24.48
2022-09-12T18:24:22.152Z,24.39
2022-09-12T18:26:50.697Z,24.30
2022-09-12T18:29:20.317Z,24.20
2022-09-12T18:31:49.010Z,24.04
2022-09-12T18:34:18.280Z,23.80
2022-09-12T18:36:51.549Z,23.74
2022-09-12T18:39:26.714Z,23.50
2022-09-12T18:41:56.604Z,23.56
2022-09-12T18:44:25.013Z,23.42
2022-09-12T18:46:53.907Z,23.49
2022-09-12T18:49:22.945Z,23.41
2022-09-12T18:51:51.267Z,23.34
2022-09-12T18:54:21.179Z,23.33
2022-09-12T18:56:49.758Z,23.20
2022-09-12T18:59:18.251Z,23.01
2022-09-12T19:01:47.646Z,23.16
2022-09-12T19:04:16.597Z,23.11
2022-09-12T19:06:48.201Z,22.88
2022-09-12T19:09:18.980Z,22.84
2022-09-12T19:11:52.851Z,22.82
2022-09-12T19:14:24.889Z,22.73
2022-09-12T19:16:54.313Z,22.77
2022-09-12T19:19:23.401Z,22.78
2022-09-12T19:21:51.945Z,22.70
2022-09-12T19:24:21.838Z,22.65
2022-09-12T19:26:52.081Z,22.54
2022-09-12T19:29:20.594Z,22.41
2022-09-12T19:31:49.025Z,22.49
2022-09-12T19:34:17.433Z,22.29
2022-09-12T19:36:47.289Z,22.23
2022-09-12T19:39:17.338Z,22.14
2022-09-12T19:41:48.316Z,22.08
2022-09-12T19:44:19.234Z,21.99
2022-09-12T19:46:47.767Z,21.88
2022-09-12T19:49:16.557Z,21.80
2022-09-12T19:51:44.926Z,22.05
2022-09-12T19:54:13.858Z,22.00
2022-09-12T19:56:42.478Z,22.07
2022-09-12T19:59:11.722Z,21.51
2022-09-12T20:01:41.651Z,22.06
2022-09-12T20:04:10.117Z,21.86
2022-09-12T20:06:38.708Z,21.91
2022-09-12T20:09:07.221Z,21.98
2022-09-12T20:11:35.651Z,21.87
2022-09-12T20:14:04.327Z,21.60
2022-09-12T20:16:33.493Z,21.63
2022-09-12T20:19:07.102Z,21.62
2022-09-12T20:21:37.221Z,21.80
2022-09-12T20:24:10.881Z,21.64
2022-09-12T20:26:39.713Z,21.70
2022-09-12T20:29:09.664Z,21.73
2022-09-12T20:31:40.137Z,21.64
2022-09-12T20:34:17.789Z,21.53
2022-09-12T20:36:46.275Z,21.54
2022-09-12T20:39:17.067Z,21.41
2022-09-12T20:41:46.744Z,21.36
2022-09-12T20:44:15.851Z,21.27
2022-09-12T20:46:44.751Z,21.44
2022-09-12T20:49:14.707Z,21.42
2022-09-12T20:51:43.173Z,21.42
2022-09-12T20:54:12.447Z,21.22
2022-09-12T20:56:40.813Z,21.40
2022-09-12T20:59:12.540Z,21.22
2022-09-12T21:01:41.012Z,21.06
2022-09-12T21:04:13.043Z,21.36
2022-09-12T21:06:44.921Z,21.25
2022-09-12T21:09:15.030Z,21.22
2022-09-12T21:11:43.429Z,21.27
2022-09-12T21:14:11.842Z,21.28
2022-09-12T21:16:40.262Z,21.26
2022-09-12T21:19:09.117Z,21.18
2022-09-12T21:21:37.899Z,21.09
2022-09-12T21:24:08.681Z,21.21
2022-09-12T21:26:39.059Z,21.29
2022-09-12T21:29:07.462Z,21.26
2022-09-12T21:31:35.883Z,21.53
2022-09-12T21:34:04.667Z,21.57
2022-09-12T21:36:33.013Z,21.39
2022-09-12T21:39:01.558Z,21.39
2022-09-12T21:41:31.320Z,21.56
2022-09-12T21:43:59.640Z,21.49
2022-09-12T21:46:28.051Z,21.75
2022-09-12T21:48:56.471Z,21.80
2022-09-12T21:51:24.788Z,21.81
2022-09-12T21:53:53.469Z,21.81
2022-09-12T21:56:22.091Z,21.79
2022-09-12T21:58:51.864Z,21.75
2022-09-12T22:01:20.447Z,21.80
2022-09-12T22:03:50.015Z,21.93
2022-09-12T22:06:22.275Z,21.89
2022-09-12T22:08:50.935Z,21.87
2022-09-12T22:11:20.593Z,22.02
2022-09-12T22:13:49.091Z,21.83
2022-09-12T22:16:19.047Z,22.02
2022-09-12T22:18:47.871Z,22.04
2022-09-12T22:21:22.038Z,21.70
2022-09-12T22:24:07.605Z,21.97
2022-09-12T22:26:43.283Z,21.73
2022-09-12T22:29:13.299Z,21.67
2022-09-12T22:31:43.229Z,21.81
2022-09-12T22:34:11.733Z,21.78
2022-09-12T22:36:40.180Z,21.73
2022-09-12T22:39:09.176Z,21.61
2022-09-12T22:41:37.560Z,21.26
2022-09-12T22:44:06.503Z,21.69
2022-09-12T22:46:35.183Z,21.60
2022-09-12T22:49:05.826Z,21.52
2022-09-12T22:51:34.629Z,21.53
2022-09-12T22:54:03.573Z,21.61
2022-09-12T22:56:31.985Z,21.57
2022-09-12T22:59:01.221Z,21.54
2022-09-12T23:01:29.852Z,21.23
2022-09-12T23:03:58.208Z,21.54
2022-09-12T23:06:28.115Z,21.52
2022-09-12T23:08:57.345Z,21.52
2022-09-12T23:11:25.974Z,21.50
2022-09-12T23:13:54.703Z,21.50
2022-09-12T23:16:25.562Z,21.40
2022-09-12T23:18:54.202Z,21.54
2022-09-12T23:21:23.478Z,21.47
2022-09-12T23:23:53.484Z,21.47
2022-09-12T23:26:24.045Z,21.51
2022-09-12T23:28:54.809Z,21.30
2022-09-12T23:31:25.155Z,21.55
2022-09-12T23:33:54.905Z,21.44
2022-09-12T23:36:24.490Z,21.52
2022-09-12T23:38:55.794Z,21.36
2022-09-12T23:41:25.202Z,21.66
2022-09-12T23:43:53.729Z,21.63
2022-09-12T23:46:22.366Z,21.40
2022-09-12T23:48:53.151Z,21.57
2022-09-12T23:51:22.723Z,21.44
2022-09-12T23:53:51.102Z,21.57
2022-09-12T23:56:22.108Z,21.25
2022-09-12T23:58:50.483Z,21.37
